This is the latest recevied weather packets stored in our database for station/object OM1ATS-6. If no packets are shown the sender has not sent any weather packets the latest 10 day(s).
| Time | Temp. | Humidity | Pressure | Rain* | Wind** | Luminosity | Snow |
|---|---|---|---|---|---|---|---|
| 1778092630 | 20.56° C | 55% | 1008.5 hPa | - | - | - | - |
| 1778091430 | 20.56° C | 54% | 1008.4 hPa | - | - | - | - |
| 1778088730 | 21.67° C | 50% | 1008.7 hPa | - | - | - | - |
| 1778085430 | 23.33° C | 45% | 1009.9 hPa | - | - | - | - |
| 1778084830 | 23.89° C | 45% | 1009.9 hPa | - | - | - | - |
| 1778084530 | 23.89° C | 45% | 1009.9 hPa | - | - | - | - |
| 1778084229 | 23.89° C | 45% | 1010 hPa | - | - | - | - |
| 1778080330 | 24.44° C | 43% | 1009 hPa | - | - | - | - |
| 1778079130 | 24.44° C | 44% | 1009.2 hPa | - | - | - | - |
| 1778078230 | 24.44° C | 45% | 1009.7 hPa | - | - | - | - |
| 1778077630 | 24.44° C | 43% | 1009.7 hPa | - | - | - | - |
| 1778076130 | 25° C | 41% | 1009.5 hPa | - | - | - | - |
| 1778073131 | 25.56° C | 40% | 1009.9 hPa | - | - | - | - |
| 1778072530 | 26.11° C | 39% | 1009.9 hPa | - | - | - | - |
| 1778071029 | 26.11° C | 41% | 1010.7 hPa | - | - | - | - |
| 1778070730 | 26.11° C | 41% | 1010.7 hPa | - | - | - | - |
| 1778069829 | 25.56° C | 43% | 1010.3 hPa | - | - | - | - |
| 1778069529 | 25.56° C | 42% | 1010.3 hPa | - | - | - | - |
| 1778068629 | 25.56° C | 43% | 1010 hPa | - | - | - | - |
| 1778068330 | 25.56° C | 43% | 1010 hPa | - | - | - | - |
| 1778067429 | 25° C | 45% | 1010.2 hPa | - | - | - | - |
| 1778066830 | 25° C | 46% | 1010.2 hPa | - | - | - | - |
| 1778062330 | 23.33° C | 54% | 1011 hPa | - | - | - | - |
| 1778061730 | 22.78° C | 54% | 1011 hPa | - | - | - | - |
| 1778060229 | 22.78° C | 55% | 1011.5 hPa | - | - | - | - |
* Rain since midnight (hover to see other rain measurements)
** Current wind speed in m/s (hover to see current wind gust speed)